Ekati Airport


Codes: CYOA/YOA
Name: Ekati Airport
City: Ekati
Country: Canada
Elevation: 1536 ft.
Wikipedia:

Photos at Ekati Airport


   Photos courtesy of SpottingLog. You can add your own sightings and photos by signing up for a free trial today.



No photos found.

Weather at Ekati Airport


Time (UTC)DescriptionTempratureWindCloud coverageVisibilityPressureHumidity
19-Apr-2024 06:00Overcast Clouds-8°C9 mph, W100%10000m1036hPa88%
19-Apr-2024 09:00Overcast Clouds-7°C9 mph, SW100%10000m1034hPa86%
19-Apr-2024 12:00Overcast Clouds-7°C9 mph, SW100%10000m1031hPa83%
19-Apr-2024 15:00Overcast Clouds-4°C13 mph, W99%10000m1027hPa80%
19-Apr-2024 18:00Overcast Clouds-1°C16 mph, W100%10000m1024hPa83%
19-Apr-2024 21:00Overcast Clouds-0°C11 mph, NW88%10000m1024hPa89%
20-Apr-2024 00:00Overcast Clouds-1°C13 mph, NE89%10000m1025hPa88%
20-Apr-2024 03:00Overcast Clouds-7°C13 mph, NE100%10000m1028hPa92%
20-Apr-2024 06:00Overcast Clouds-15°C9 mph, NE97%10000m1031hPa97%
20-Apr-2024 09:00Overcast Clouds-20°C9 mph, E93%10000m1033hPa100%
20-Apr-2024 12:00Overcast Clouds-24°C4 mph, E89%6986m1034hPa100%
20-Apr-2024 15:00Overcast Clouds-18°C4 mph, E87%10000m1032hPa96%
20-Apr-2024 18:00Broken Clouds-14°C4 mph, E56%10000m1029hPa83%
20-Apr-2024 21:00Few Clouds-11°C4 mph, E18%10000m1028hPa75%
21-Apr-2024 00:00Scattered Clouds-12°C4 mph, E25%10000m1026hPa84%
21-Apr-2024 03:00Scattered Clouds-17°C7 mph, SE43%10000m1027hPa93%
21-Apr-2024 06:00Broken Clouds-20°C7 mph, SE68%10000m1026hPa96%
21-Apr-2024 09:00Overcast Clouds-21°C7 mph, SE87%10000m1025hPa95%
21-Apr-2024 12:00Overcast Clouds-20°C7 mph, SE92%10000m1023hPa88%
21-Apr-2024 15:00Overcast Clouds-15°C9 mph, SE100%10000m1020hPa80%
21-Apr-2024 18:00Overcast Clouds-11°C11 mph, S94%10000m1018hPa75%
21-Apr-2024 21:00Scattered Clouds-8°C9 mph, S36%10000m1016hPa77%
22-Apr-2024 00:00Few Clouds-8°C7 mph, S24%10000m1015hPa88%
22-Apr-2024 03:00Few Clouds-14°C4 mph, S15%10000m1016hPa95%
22-Apr-2024 06:00Few Clouds-16°C4 mph, SW17%10000m1017hPa97%
22-Apr-2024 09:00Scattered Clouds-17°C4 mph, NW44%10000m1017hPa97%
22-Apr-2024 12:00Broken Clouds-14°C4 mph, N66%1107m1017hPa98%
22-Apr-2024 15:00Overcast Clouds-6°C4 mph, N99%2035m1017hPa93%
22-Apr-2024 18:00Overcast Clouds-3°C4 mph, N100%10000m1017hPa85%
22-Apr-2024 21:00Overcast Clouds-3°C4 mph, N95%10000m1018hPa81%
23-Apr-2024 00:00Overcast Clouds-4°C4 mph, NE97%10000m1019hPa90%
23-Apr-2024 03:00Overcast Clouds-6°C4 mph, E100%3819m1020hPa96%
23-Apr-2024 06:00Overcast Clouds-9°C4 mph, E100%10000m1021hPa96%
23-Apr-2024 09:00Overcast Clouds-15°C4 mph, NE97%7990m1023hPa99%
23-Apr-2024 12:00Overcast Clouds-16°C4 mph, NE98%3487m1024hPa100%
23-Apr-2024 15:00Overcast Clouds-12°C7 mph, NE97%5779m1025hPa97%
23-Apr-2024 18:00Overcast Clouds-9°C7 mph, NE89%10000m1024hPa91%
23-Apr-2024 21:00Overcast Clouds-8°C7 mph, NE95%10000m1025hPa87%
24-Apr-2024 00:00Overcast Clouds-8°C7 mph, NE97%10000m1025hPa92%
24-Apr-2024 03:00Overcast Clouds-13°C4 mph, E98%6373m1027hPa97%